Terminal Aerodrome Forecast
Issued by NWS

Home | Current Version | Previous Version | Text Only | Print | Product List | Glossary On
Versions: 1 2 3 4 5 6 7 8 9 10 11 12 13 14 15 16 17 18 19 20 21 22 23
000
FTUS41 KBTV 031722
TAFPBG
TAF
KPBG 031722Z 0318/0418 14010KT P6SM VCSH BKN100
     FM032100 14008KT P6SM SCT100
     FM040000 VRB03KT P6SM SKC
     FM041400 17013G25KT P6SM FEW080=

USA.gov is the U.S. government's official web portal to all federal, state and local government web resources and services.